Ashland, OR

11:03 AM PDT on October 24, 2014 (GMT -0700)
Tolman Creek Mountain | Change Station
CLOSE
Current Station
Personal Weather Station
Location: Ashland, OR
Elevation: 2884 ft
Nearby Weather Stations
Active Advisory: Wind Advisory

Elev 2884 ft 42.16 °N, 122.67 °W | Updated 12 minutes ago

Overcast
Overcast
57.4 °F
Feels Like 57.4 °F
N
5.8
Wind Variable Wind from NNW

Today
High -- | Low -- °F
--% Chance of Precip.
Yesterday
High -- | Low -- °F
Precip. -- in
7:33 AM 6:14 PM
New Moon, 1% visible
Pressure 29.90 in
Visibility 6.0 miles
Clouds Mostly Cloudy 600 ft
Overcast 10000 ft
Dew Point 50 °F
Humidity 76%
Rainfall 0.27 in
Snow Depth 0 in
UV 1 out of 12
Pollen .40 out of 12
Air Quality Not available.
Flu Activity Sporadic
SPECI KMFR 241721Z 32005KT 6SM -RA BR BKN006 OVC100 12/11 A2990 RMK AO2 RAB1657 P0000 T01170106

More Conditions Fewer Conditions

Pressure 29.90 in
Visibility 6.0 miles
Clouds Mostly Cloudy 600 ft
Overcast 10000 ft
Dew Point 50 °F
Humidity 76%
Rainfall 0.27 in
Snow Depth 0 in
UV 1 out of 12
Pollen .40 out of 12
Air Quality Not available.
Flu Activity Sporadic
SPECI KMFR 241721Z 32005KT 6SM -RA BR BKN006 OVC100 12/11 A2990 RMK AO2 RAB1657 P0000 T01170106

More Conditions Fewer Conditions

10-Day Weather Forecast

Almanac

Astronomy

Oct. 24, 2014 Rise Set
Actual Time 7:33 AM PDT 6:14 PM PDT
Civil Twilight 7:05 AM PDT 6:43 PM PDT
Nautical Twilight 6:32 AM PDT 7:16 PM PDT
Astronomical Twilight 6:00 AM PDT 7:48 PM PDT
Moon 8:18 AM PDT 6:57 PM PDT
Length of Visible Light 11h 38m
Length of Day
10h 41m
Tomorrow will be 2m 38s shorter.
New Moon, 1% of the Moon is Illuminated
Today
New Moon
Oct 30
First Quarter
Nov 6
Full
Nov 14
Last Quarter
Nov 22
New

Today's Extremes

State Highs State Lows

Community

WunderPhotos

Upload Photos

1,764,628 photos uploaded!

Nearby

Snow Depth

Station Depth Elevation
Big Red Mountain 0 in 6250 ft
Billie Creek Divide 0 in 5300 ft
Fourmile Lake 0 in 6000 ft
Cold Springs Camp 0 in 6100 ft
Bigelow Camp 0 in 5120 ft

Earthquake Activity

City Distance Mag. Time & Date
No recent earthquake activity has been reported nearby.
Minimum magnitude displayed is 2.5.

Coastal Water Temperatures

Place Temperature
No Stations Reporting

Nearby Weather Stations